Terminal Aerodrome Forecast
Issued by NWS

Home | Current Version | Previous Version | Text Only | Print | Product List | Glossary On
Versions: 1 2 3 4 5 6 7 8 9 10 11 12 13 14
000
FTUS44 KCRP 051720
TAFALI
TAF
KALI 051720Z 0518/0618 14015G22KT P6SM SCT035
     FM060300 14008KT P6SM FEW025
     FM060900 14008KT 6SM BR BKN015
     FM061500 16015G22KT P6SM SCT035=

USA.gov is the U.S. government's official web portal to all federal, state and local government web resources and services.